Time;durP1;ratioP1;P1;durP2;ratioP2;P2;SDS_P1;SDS_P2;PMS_P1;PMS_P2;Temp;Humidity;BMP_temperature;BMP_pressure;BME280_temperature;BME280_humidity;BME280_pressure;Samples;Min_cycle;Max_cycle;Signal;HPM_P1;HPM_P2
2020/12/08 00:03:33;;;;;;;13.67;12.00;;;;;;;;;;5124371;28;20058;-57
2020/12/08 00:06:10;;;;;;;17.30;12.20;;;;;;;;;;5124794;28;20031;-57
2020/12/08 00:09:01;;;;;;;15.33;12.53;;;;;;;;;;5124255;28;20028;-58
2020/12/08 00:11:43;;;;;;;15.13;11.63;;;;;;;;;;5123822;28;20015;-57
2020/12/08 00:14:27;;;;;;;17.20;11.17;;;;;;;;;;5123928;28;20051;-58
2020/12/08 00:20:03;;;;;;;14.27;10.13;;;;;;;;;;5090899;28;20080;-58
2020/12/08 00:26:04;;;;;;;;;;;;;;;;;;;;;
2020/12/08 00:32:01;;;;;;;18.57;12.70;;;;;;;;;;5060545;28;20128;-57
2020/12/08 00:34:47;;;;;;;16.93;12.97;;;;;;;;;;5060767;28;20029;-57
2020/12/08 00:37:33;;;;;;;17.23;13.87;;;;;;;;;;5040064;28;20037;-58
2020/12/08 00:40:31;;;;;;;20.50;14.43;;;;;;;;;;5060145;28;20042;-57
2020/12/08 00:43:16;;;;;;;18.43;13.73;;;;;;;;;;5044549;28;20040;-56
2020/12/08 00:45:57;;;;;;;17.07;13.73;;;;;;;;;;5079595;28;20033;-58
2020/12/08 00:54:38;;;;;;;22.40;14.97;;;;;;;;;;5072727;28;20036;-58
2020/12/08 00:57:19;;;;;;;17.17;14.73;;;;;;;;;;5078972;28;20533;-54
2020/12/08 01:02:37;;;;;;;;;;;;;;;;;;5079528;28;20063;-57
2020/12/08 01:05:22;;;;;;;;;;;;;;;;;;;;;
2020/12/08 01:08:29;;;;;;;20.00;15.30;;;;;;;;;;5121961;28;20130;-57
2020/12/08 01:14:53;;;;;;;22.63;14.47;;;;;;;;;;5108201;28;20053;-58
2020/12/08 01:23:33;;;;;;;22.13;14.40;;;;;;;;;;5121991;28;20063;-57
2020/12/08 01:26:06;;;;;;;21.13;13.67;;;;;;;;;;5122286;28;20051;-57
2020/12/08 01:29:22;;;;;;;22.23;15.93;;;;;;;;;;5122332;28;20028;-58
2020/12/08 01:38:42;;;;;;;22.17;15.97;;;;;;;;;;5056522;28;20037;-57
2020/12/08 01:41:27;;;;;;;;;;;;;;;;;;;;;
2020/12/08 01:44:20;;;;;;;18.37;13.50;;;;;;;;;;5053343;28;20096;-55
2020/12/08 01:46:58;;;;;;;19.13;14.37;;;;;;;;;;5043963;28;20090;-57
2020/12/08 01:49:26;;;;;;;23.83;14.53;;;;;;;;;;5058886;28;20788;-58
2020/12/08 01:52:09;;;;;;;;;;;;;;;;;;;;;
2020/12/08 01:55:07;;;;;;;28.50;15.53;;;;;;;;;;5121380;28;20447;-58
2020/12/08 01:58:06;;;;;;;15.60;13.30;;;;;;;;;;5048551;28;20063;-55
2020/12/08 02:00:44;;;;;;;27.23;15.40;;;;;;;;;;5122191;28;20102;-55
2020/12/08 02:03:41;;;;;;;21.37;14.87;;;;;;;;;;5122281;28;20027;-56
2020/12/08 02:06:48;;;;;;;24.37;16.83;;;;;;;;;;5121753;28;20065;-56
2020/12/08 02:09:40;;;;;;;22.00;16.17;;;;;;;;;;5118908;28;20131;-57
2020/12/08 02:12:18;;;;;;;20.40;14.43;;;;;;;;;;5092161;28;20477;-58
2020/12/08 02:15:02;;;;;;;23.27;15.43;;;;;;;;;;5121040;28;20063;-58
2020/12/08 02:17:49;;;;;;;20.47;16.40;;;;;;;;;;5121210;28;20023;-57
2020/12/08 02:20:44;;;;;;;;;;;;;;;;;;;;;
2020/12/08 02:23:23;;;;;;;27.27;16.07;;;;;;;;;;5078401;28;20565;-56
2020/12/08 02:26:04;;;;;;;19.37;15.37;;;;;;;;;;5077359;28;20094;-57
2020/12/08 02:29:02;;;;;;;26.43;17.80;;;;;;;;;;5060434;28;20119;-58
2020/12/08 02:31:43;;;;;;;29.83;17.00;;;;;;;;;;5071646;28;20047;-55
2020/12/08 02:34:50;;;;;;;22.30;17.87;;;;;;;;;;5077360;28;20035;-55
2020/12/08 02:43:26;;;;;;;22.67;16.67;;;;;;;;;;5077392;28;20043;-53
2020/12/08 02:46:21;;;;;;;;;;;;;;;;;;;;;
2020/12/08 02:48:56;;;;;;;23.73;16.97;;;;;;;;;;5076991;28;20211;-55
2020/12/08 02:54:45;;;;;;;21.07;16.53;;;;;;;;;;5119915;28;20080;-55
2020/12/08 02:57:34;;;;;;;25.73;17.20;;;;;;;;;;5119492;28;20532;-58
2020/12/08 03:00:24;;;;;;;18.30;15.73;;;;;;;;;;5119113;28;20044;-58
2020/12/08 03:02:54;;;;;;;22.00;15.90;;;;;;;;;;5100855;28;20337;-57
2020/12/08 03:05:53;;;;;;;22.50;17.20;;;;;;;;;;5101416;28;20023;-58
2020/12/08 03:08:24;;;;;;;28.77;17.73;;;;;;;;;;5119550;28;20456;-58
2020/12/08 03:13:48;;;;;;;24.63;19.70;;;;;;;;;;5102986;28;20076;-58
2020/12/08 03:16:33;;;;;;;29.53;20.80;;;;;;;;;;5119328;28;20024;-58
2020/12/08 03:19:12;;;;;;;26.13;18.80;;;;;;;;;;5119396;28;20380;-57
2020/12/08 03:22:03;;;;;;;29.60;19.10;;;;;;;;;;5119249;28;20024;-57
2020/12/08 03:24:48;;;;;;;32.92;20.83;;;;;;;;;;5083153;28;20443;-58
2020/12/08 03:27:24;;;;;;;25.93;17.67;;;;;;;;;;5102643;28;20024;-56
2020/12/08 03:30:06;;;;;;;23.23;16.60;;;;;;;;;;5118834;28;20026;-57
2020/12/08 03:33:05;;;;;;;25.87;18.13;;;;;;;;;;5119253;28;20080;-57
2020/12/08 03:35:47;;;;;;;22.90;16.00;;;;;;;;;;5119213;28;20440;-57
2020/12/08 03:38:41;;;;;;;29.07;18.33;;;;;;;;;;5101276;28;20043;-57
2020/12/08 03:41:15;;;;;;;33.70;18.30;;;;;;;;;;5076831;28;20037;-57
2020/12/08 03:44:13;;;;;;;24.57;17.83;;;;;;;;;;5077123;28;20036;-57
2020/12/08 03:47:11;;;;;;;26.37;21.53;;;;;;;;;;5076702;28;20064;-56
2020/12/08 03:50:16;;;;;;;27.70;19.00;;;;;;;;;;5074959;28;20043;-56
2020/12/08 03:52:51;;;;;;;30.10;19.33;;;;;;;;;;5017080;28;20531;-58
2020/12/08 03:55:41;;;;;;;28.87;19.13;;;;;;;;;;5016445;28;20034;-56
2020/12/08 03:58:11;;;;;;;29.83;19.33;;;;;;;;;;5016334;28;20049;-58
2020/12/08 04:00:52;;;;;;;27.33;19.47;;;;;;;;;;5011498;28;20095;-58
2020/12/08 04:03:47;;;;;;;27.47;20.57;;;;;;;;;;5027939;28;20049;-58
2020/12/08 04:06:29;;;;;;;29.40;19.30;;;;;;;;;;5054493;28;20041;-58
2020/12/08 04:12:12;;;;;;;29.90;20.40;;;;;;;;;;5091770;28;20423;-56
2020/12/08 04:17:43;;;;;;;24.10;20.20;;;;;;;;;;5106284;28;20036;-58
2020/12/08 04:20:25;;;;;;;26.93;20.23;;;;;;;;;;5123426;28;20074;-58
2020/12/08 04:23:20;;;;;;;30.30;20.20;;;;;;;;;;5121084;28;20040;-58
2020/12/08 04:26:06;;;;;;;;;;;;;;;;;;;;;
2020/12/08 04:32:04;;;;;;;;;;;;;;;;;;;;;
2020/12/08 04:34:45;;;;;;;17.87;15.27;;;;;;;;;;5116977;28;20028;-55
2020/12/08 04:37:14;;;;;;;;;;;;;;;;;;5118512;28;20024;-53
2020/12/08 04:40:09;;;;;;;21.40;17.73;;;;;;;;;;5116327;28;19911;-55
2020/12/08 04:45:44;;;;;;;26.03;18.73;;;;;;;;;;5075328;28;20031;-52
2020/12/08 04:51:26;;;;;;;;;;;;;;;;;;;;;
2020/12/08 04:54:05;;;;;;;24.87;17.77;;;;;;;;;;5115696;28;20107;-55
2020/12/08 04:56:55;;;;;;;22.33;17.47;;;;;;;;;;5099017;28;20564;-55
2020/12/08 04:59:29;;;;;;;27.93;17.80;;;;;;;;;;5098921;28;20052;-55
2020/12/08 05:02:12;;;;;;;24.17;17.03;;;;;;;;;;5118302;28;20447;-52
2020/12/08 05:05:03;;;;;;;26.47;17.60;;;;;;;;;;5092933;28;20472;-55
2020/12/08 05:07:30;;;;;;;26.67;19.37;;;;;;;;;;5117184;28;20051;-54
2020/12/08 05:10:27;;;;;;;29.00;19.20;;;;;;;;;;5116939;28;20027;-53
2020/12/08 05:13:11;;;;;;;26.77;17.60;;;;;;;;;;5082059;28;20103;-55
2020/12/08 05:15:37;;;;;;;25.50;20.07;;;;;;;;;;5096900;28;20028;-55
2020/12/08 05:18:15;;;;;;;27.53;18.53;;;;;;;;;;5116925;28;20080;-55
2020/12/08 05:21:12;;;;;;;30.17;19.57;;;;;;;;;;5116764;28;20499;-53
2020/12/08 05:23:54;;;;;;;26.07;19.17;;;;;;;;;;5116295;28;20411;-54
2020/12/08 05:26:36;;;;;;;27.97;18.00;;;;;;;;;;5115440;28;20027;-53
2020/12/08 05:32:43;;;;;;;28.50;19.43;;;;;;;;;;5103102;28;20053;-53
2020/12/08 05:35:34;;;;;;;33.37;21.27;;;;;;;;;;5116894;28;20035;-56
2020/12/08 05:44:28;;;;;;;;;;;;;;;;;;;;;
2020/12/08 05:47:03;;;;;;;25.27;18.20;;;;;;;;;;5116139;28;20027;-57
2020/12/08 05:52:35;;;;;;;32.33;20.53;;;;;;;;;;5115325;28;20042;-57
2020/12/08 05:55:34;;;;;;;29.63;20.13;;;;;;;;;;5116694;28;20020;-57
2020/12/08 05:58:23;;;;;;;25.83;18.63;;;;;;;;;;5115586;28;20019;-58
2020/12/08 06:01:07;;;;;;;29.10;20.37;;;;;;;;;;5105426;28;20074;-56
2020/12/08 06:07:31;;;;;;;26.48;20.73;;;;;;;;;;5106670;28;20423;-57
2020/12/08 06:10:11;;;;;;;26.87;18.53;;;;;;;;;;5115757;28;20047;-56
2020/12/08 06:12:38;;;;;;;29.30;19.77;;;;;;;;;;5056430;28;20424;-58
2020/12/08 06:15:44;;;;;;;26.67;17.37;;;;;;;;;;5038732;28;20359;-56
2020/12/08 06:18:15;;;;;;;29.63;20.03;;;;;;;;;;5071981;28;20048;-56
2020/12/08 06:21:07;;;;;;;26.10;18.87;;;;;;;;;;5071733;28;20070;-57
2020/12/08 06:23:46;;;;;;;28.97;18.13;;;;;;;;;;5029698;28;20036;-57
2020/12/08 06:29:31;;;;;;;24.40;17.77;;;;;;;;;;5072101;28;20037;-57
2020/12/08 06:32:10;;;;;;;25.93;19.23;;;;;;;;;;5050106;28;20592;-58
2020/12/08 06:34:51;;;;;;;29.73;20.17;;;;;;;;;;5072045;28;20037;-55
2020/12/08 06:41:02;;;;;;;30.10;19.67;;;;;;;;;;5071959;28;20039;-57
2020/12/08 06:43:32;;;;;;;26.13;19.20;;;;;;;;;;5072712;28;20039;-57
2020/12/08 06:46:45;;;;;;;25.52;19.80;;;;;;;;;;5072361;28;20036;-58
2020/12/08 06:49:20;;;;;;;25.90;17.77;;;;;;;;;;5067614;28;20039;-54
2020/12/08 06:52:24;;;;;;;21.17;16.60;;;;;;;;;;5114513;28;20096;-57
2020/12/08 06:55:24;;;;;;;;;;;;;;;;;;;;;
2020/12/08 06:58:21;;;;;;;;;;;;;;;;;;;;;
2020/12/08 07:01:05;;;;;;;28.00;20.27;;;;;;;;;;5112653;28;20136;-52
2020/12/08 07:04:07;;;;;;;;;;;;;;;;;;;;;
2020/12/08 07:06:43;;;;;;;26.97;19.50;;;;;;;;;;5111820;28;20540;-53
2020/12/08 07:12:31;;;;;;;29.73;20.00;;;;;;;;;;5114661;28;20127;-55
2020/12/08 07:15:21;;;;;;;24.27;16.87;;;;;;;;;;5114388;28;20031;-55
2020/12/08 07:18:12;;;;;;;28.90;24.20;;;;;;;;;;5096358;28;20044;-54
2020/12/08 07:20:58;;;;;;;27.33;19.70;;;;;;;;;;5097991;28;20028;-55
2020/12/08 07:26:49;;;;;;;22.83;17.83;;;;;;;;;;5095930;28;20028;-55
2020/12/08 07:29:33;;;;;;;22.10;17.73;;;;;;;;;;5114399;28;20023;-54
2020/12/08 07:35:51;;;;;;;26.93;19.53;;;;;;;;;;5114825;28;20570;-54
2020/12/08 07:38:53;;;;;;;29.63;22.60;;;;;;;;;;5033601;28;20034;-55
2020/12/08 07:41:25;;;;;;;25.27;18.90;;;;;;;;;;5012239;28;20400;-54
2020/12/08 07:44:10;;;;;;;31.03;21.00;;;;;;;;;;5104824;28;20031;-52
2020/12/08 07:47:13;;;;;;;24.57;18.83;;;;;;;;;;5119711;28;20027;-55
2020/12/08 07:49:48;;;;;;;26.53;19.97;;;;;;;;;;5117191;28;20032;-55
2020/12/08 07:52:45;;;;;;;30.07;20.10;;;;;;;;;;5114668;28;20040;-55
2020/12/08 07:55:22;;;;;;;24.97;18.77;;;;;;;;;;5085854;28;20075;-52
2020/12/08 07:57:52;;;;;;;27.83;19.17;;;;;;;;;;5117954;28;20373;-52
2020/12/08 08:00:33;;;;;;;26.40;18.27;;;;;;;;;;5117504;28;20122;-54
2020/12/08 08:03:19;;;;;;;33.60;20.37;;;;;;;;;;5118289;28;20019;-53
2020/12/08 08:09:05;;;;;;;22.60;18.90;;;;;;;;;;5118145;28;20031;-55
2020/12/08 08:11:31;;;;;;;30.47;17.67;;;;;;;;;;5098911;28;20045;-53
2020/12/08 08:14:28;;;;;;;;;;;;;;;;;;;;;
2020/12/08 08:16:57;;;;;;;20.40;16.70;;;;;;;;;;5117845;28;20487;-54
2020/12/08 08:19:36;;;;;;;36.47;20.47;;;;;;;;;;5117682;28;20039;-55
2020/12/08 08:22:28;;;;;;;24.43;16.43;;;;;;;;;;5114110;28;20038;-55
2020/12/08 08:25:02;;;;;;;28.53;20.57;;;;;;;;;;5117660;28;20460;-55
2020/12/08 08:27:40;;;;;;;25.13;18.70;;;;;;;;;;5110603;28;20110;-55
2020/12/08 08:30:21;;;;;;;30.53;21.90;;;;;;;;;;5117511;28;20024;-56
2020/12/08 08:33:29;;;;;;;26.47;17.67;;;;;;;;;;5117265;28;20054;-55
2020/12/08 08:36:12;;;;;;;28.23;17.10;;;;;;;;;;5033475;28;20056;-57
2020/12/08 08:38:42;;;;;;;29.37;20.80;;;;;;;;;;5017894;28;20120;-57
2020/12/08 08:41:19;;;;;;;32.70;18.98;;;;;;;;;;5031970;28;20578;-57
2020/12/08 08:44:07;;;;;;;27.23;18.73;;;;;;;;;;5035312;28;20037;-57
2020/12/08 08:46:46;;;;;;;27.13;19.43;;;;;;;;;;5066538;28;20481;-57
2020/12/08 08:52:05;;;;;;;27.70;20.17;;;;;;;;;;5117028;28;20440;-57
2020/12/08 08:55:10;;;;;;;;;;;;;;;;;;;;;
2020/12/08 08:57:48;;;;;;;24.37;19.23;;;;;;;;;;5114534;28;20103;-55
2020/12/08 09:03:48;;;;;;;28.20;19.67;;;;;;;;;;5055148;28;20046;-57
2020/12/08 09:06:42;;;;;;;25.87;18.87;;;;;;;;;;5103052;28;20399;-57
2020/12/08 09:15:50;;;;;;;;;;;;;;;;;;;;;
2020/12/08 09:21:57;;;;;;;;;;;;;;;;;;;;;
2020/12/08 09:28:03;;;;;;;;;;;;;;;;;;;;;
2020/12/08 09:30:49;;;;;;;;;;;;;;;;;;;;;
2020/12/08 09:36:04;;;;;;;25.27;19.13;;;;;;;;;;5116618;28;20388;-56
2020/12/08 09:38:46;;;;;;;25.97;18.57;;;;;;;;;;5108443;28;20481;-57
2020/12/08 09:41:46;;;;;;;24.73;19.40;;;;;;;;;;5116909;28;20102;-55
2020/12/08 09:44:23;;;;;;;29.83;20.30;;;;;;;;;;5116406;28;20107;-58
2020/12/08 09:47:15;;;;;;;22.63;17.53;;;;;;;;;;5117236;28;20349;-57
2020/12/08 09:49:42;;;;;;;26.90;18.40;;;;;;;;;;5116276;28;20114;-56
2020/12/08 09:59:06;;;;;;;26.40;18.00;;;;;;;;;;5084192;28;20036;-57
2020/12/08 10:01:35;;;;;;;20.70;15.90;;;;;;;;;;5094828;28;20064;-57
2020/12/08 10:04:49;;;;;;;26.47;19.17;;;;;;;;;;5095693;28;20031;-57
2020/12/08 10:07:20;;;;;;;22.67;17.27;;;;;;;;;;5096186;28;20368;-57
2020/12/08 10:10:08;;;;;;;23.83;17.13;;;;;;;;;;5096560;28;20055;-56
2020/12/08 10:13:22;;;;;;;;;;;;;;;;;;;;;
2020/12/08 10:15:59;;;;;;;21.23;16.17;;;;;;;;;;5030197;28;20033;-57
2020/12/08 10:22:00;;;;;;;20.57;15.20;;;;;;;;;;5012375;28;20026;-57
2020/12/08 10:24:53;;;;;;;21.13;16.37;;;;;;;;;;5012717;28;20032;-57
2020/12/08 10:31:15;;;;;;;21.90;15.50;;;;;;;;;;5094573;28;20044;-57
2020/12/08 10:33:58;;;;;;;23.70;17.50;;;;;;;;;;5094382;28;20024;-58
2020/12/08 10:36:46;;;;;;;;;;;;;;;;;;;;;
2020/12/08 10:39:34;;;;;;;;;;;;;;;;;;;;;
2020/12/08 10:48:50;;;;;;;21.23;16.30;;;;;;;;;;5094697;28;20485;-56
2020/12/08 10:51:41;;;;;;;21.90;14.43;;;;;;;;;;5076153;28;20028;-58
2020/12/08 10:54:57;;;;;;;25.35;16.75;;;;;;;;;;5094872;28;20024;-57
2020/12/08 10:57:45;;;;;;;21.57;15.73;;;;;;;;;;5094578;28;20022;-57
2020/12/08 11:00:34;;;;;;;22.50;16.37;;;;;;;;;;5079038;28;20100;-57
2020/12/08 11:03:11;;;;;;;22.17;14.90;;;;;;;;;;5115109;28;20047;-56
2020/12/08 11:06:04;;;;;;;17.47;14.23;;;;;;;;;;5114738;28;20031;-55
2020/12/08 11:11:55;;;;;;;19.40;13.67;;;;;;;;;;5098060;28;20058;-58
2020/12/08 11:14:28;;;;;;;19.43;14.27;;;;;;;;;;5114044;28;20152;-57
2020/12/08 11:17:04;;;;;;;21.83;14.63;;;;;;;;;;5114746;28;20506;-57
2020/12/08 11:19:36;;;;;;;18.30;13.43;;;;;;;;;;5111742;28;20039;-56
2020/12/08 11:22:19;;;;;;;21.17;12.80;;;;;;;;;;5114693;28;20385;-57
2020/12/08 11:24:56;;;;;;;20.40;13.97;;;;;;;;;;5114292;28;20381;-58
2020/12/08 11:28:10;;;;;;;19.67;13.97;;;;;;;;;;5114594;28;20028;-57
2020/12/08 11:33:58;;;;;;;19.10;15.17;;;;;;;;;;5114265;28;20047;-60
2020/12/08 11:36:36;;;;;;;19.20;14.53;;;;;;;;;;5060925;28;20063;-57
2020/12/08 11:39:14;;;;;;;23.07;15.57;;;;;;;;;;5095833;28;20054;-57
2020/12/08 11:41:55;;;;;;;20.87;12.80;;;;;;;;;;5114683;28;20385;-57
2020/12/08 11:44:46;;;;;;;17.83;13.38;;;;;;;;;;5097891;28;20024;-57
2020/12/08 11:47:46;;;;;;;;;;;;;;;;;;;;;
2020/12/08 11:50:56;;;;;;;23.77;16.15;;;;;;;;;;5111828;28;20111;-58
2020/12/08 11:53:31;;;;;;;19.97;16.17;;;;;;;;;;5037662;28;20124;-57
2020/12/08 11:56:05;;;;;;;21.23;16.93;;;;;;;;;;5114151;28;20072;-55
2020/12/08 11:58:37;;;;;;;18.27;14.10;;;;;;;;;;5096631;28;20027;-57
2020/12/08 12:04:30;;;;;;;16.33;14.57;;;;;;;;;;5105785;28;20411;-55
2020/12/08 12:07:23;;;;;;;;;;;;;;;;;;;;;
2020/12/08 12:09:50;;;;;;;22.53;16.77;;;;;;;;;;5114040;28;20114;-57
2020/12/08 12:12:40;;;;;;;21.97;16.23;;;;;;;;;;5070650;28;20401;-58
2020/12/08 12:18:27;;;;;;;24.23;17.47;;;;;;;;;;5031304;28;20041;-55
2020/12/08 12:21:01;;;;;;;20.50;15.90;;;;;;;;;;5031837;28;20368;-57
2020/12/08 12:23:33;;;;;;;24.90;17.43;;;;;;;;;;5055002;28;20461;-57
2020/12/08 12:26:15;;;;;;;23.47;16.30;;;;;;;;;;5039854;28;20485;-58
2020/12/08 12:29:02;;;;;;;24.40;17.23;;;;;;;;;;5055921;28;20486;-57
2020/12/08 12:31:57;;;;;;;23.03;17.63;;;;;;;;;;5074641;28;20037;-57
2020/12/08 12:34:48;;;;;;;27.43;16.43;;;;;;;;;;5074163;28;20117;-54
2020/12/08 12:37:49;;;;;;;19.03;16.00;;;;;;;;;;5072214;28;20051;-57
2020/12/08 12:40:24;;;;;;;22.87;18.57;;;;;;;;;;5044106;28;20052;-58
2020/12/08 12:46:20;;;;;;;;;;;;;;;;;;;;;
2020/12/08 12:49:06;;;;;;;21.53;16.30;;;;;;;;;;5116941;28;20032;-58
2020/12/08 12:51:51;;;;;;;21.60;15.13;;;;;;;;;;5098450;28;20036;-58
2020/12/08 13:00:54;;;;;;;16.97;12.83;;;;;;;;;;5116650;28;20051;-57
2020/12/08 13:03:36;;;;;;;;;;;;;;;;;;;;;
2020/12/08 13:06:23;;;;;;;20.77;14.03;;;;;;;;;;5113116;28;20035;-57
2020/12/08 13:09:18;;;;;;;17.10;13.33;;;;;;;;;;5084928;28;20484;-56
2020/12/08 13:15:33;;;;;;;;;;;;;;;;;;;;;
2020/12/08 13:18:47;;;;;;;17.90;12.93;;;;;;;;;;5055282;28;20040;-57
2020/12/08 13:21:41;;;;;;;17.87;14.10;;;;;;;;;;5114693;28;20028;-57
2020/12/08 13:24:15;;;;;;;21.63;14.53;;;;;;;;;;5088139;28;20046;-56
2020/12/08 13:27:10;;;;;;;21.43;13.47;;;;;;;;;;5116387;28;20023;-58
2020/12/08 13:33:34;;;;;;;19.57;14.20;;;;;;;;;;5007474;28;20130;-57
2020/12/08 13:36:12;;;;;;;17.57;13.03;;;;;;;;;;5012996;28;20045;-56
2020/12/08 13:38:41;;;;;;;17.13;12.80;;;;;;;;;;5013121;28;20426;-57
2020/12/08 13:41:16;;;;;;;21.40;14.53;;;;;;;;;;5013288;28;20482;-57
2020/12/08 13:44:25;;;;;;;17.37;12.47;;;;;;;;;;5103025;28;20063;-57
2020/12/08 13:47:28;;;;;;;14.07;11.73;;;;;;;;;;5110404;28;20031;-57
2020/12/08 13:53:34;;;;;;;15.93;12.53;;;;;;;;;;5098246;28;20028;-58
2020/12/08 13:58:56;;;;;;;17.20;12.90;;;;;;;;;;5101158;28;20384;-57
2020/12/08 14:02:03;;;;;;;19.27;14.50;;;;;;;;;;5101524;28;20476;-58
2020/12/08 14:04:54;;;;;;;17.40;12.13;;;;;;;;;;5114693;28;20114;-57
2020/12/08 14:07:31;;;;;;;18.67;14.30;;;;;;;;;;5084929;28;20036;-56
2020/12/08 14:10:31;;;;;;;24.43;15.13;;;;;;;;;;5114171;28;20376;-58
2020/12/08 14:13:09;;;;;;;20.40;13.53;;;;;;;;;;5095811;28;20477;-58
2020/12/08 14:15:43;;;;;;;17.53;12.93;;;;;;;;;;5116471;28;20102;-58
2020/12/08 14:18:24;;;;;;;24.03;14.33;;;;;;;;;;5084241;28;20040;-58
2020/12/08 14:21:08;;;;;;;19.27;13.70;;;;;;;;;;5115970;28;20031;-57
2020/12/08 14:24:06;;;;;;;21.40;14.43;;;;;;;;;;5116006;28;20398;-58
2020/12/08 14:26:41;;;;;;;19.53;13.90;;;;;;;;;;5115907;28;20465;-57
2020/12/08 14:31:59;;;;;;;32.13;14.40;;;;;;;;;;5052486;28;20108;-56
2020/12/08 14:37:43;;;;;;;;;;;;;;;;;;;;;
2020/12/08 14:43:37;;;;;;;21.50;14.73;;;;;;;;;;5042069;28;20074;-58
2020/12/08 14:46:15;;;;;;;19.73;13.37;;;;;;;;;;5044880;28;20482;-57
2020/12/08 14:48:50;;;;;;;20.17;15.30;;;;;;;;;;5051473;28;20048;-57
2020/12/08 14:51:38;;;;;;;17.93;14.97;;;;;;;;;;5052182;28;20055;-57
2020/12/08 14:57:14;;;;;;;25.63;13.27;;;;;;;;;;5052332;28;20227;-58
2020/12/08 15:00:10;;;;;;;17.70;13.67;;;;;;;;;;5051005;28;20052;-55
2020/12/08 15:02:52;;;;;;;20.07;14.53;;;;;;;;;;5037241;28;20581;-57
2020/12/08 15:05:33;;;;;;;20.37;13.90;;;;;;;;;;5051374;28;20436;-55
2020/12/08 15:08:02;;;;;;;;;;;;;;;;;;5052539;28;20064;-57
2020/12/08 15:10:31;;;;;;;17.30;11.80;;;;;;;;;;5069553;28;19907;-57
2020/12/08 15:13:06;;;;;;;19.73;14.33;;;;;;;;;;5096523;28;20404;-57
2020/12/08 15:15:48;;;;;;;19.60;14.83;;;;;;;;;;5114246;28;20453;-58
2020/12/08 15:18:27;;;;;;;23.40;16.33;;;;;;;;;;5114844;28;20496;-58
2020/12/08 15:21:16;;;;;;;;;;;;;;;;;;;;;
2020/12/08 15:23:52;;;;;;;21.23;14.87;;;;;;;;;;5098053;28;20380;-54
2020/12/08 15:26:18;;;;;;;23.80;17.07;;;;;;;;;;5114441;28;20053;-56
2020/12/08 15:28:58;;;;;;;21.47;14.77;;;;;;;;;;5114315;28;20028;-58
2020/12/08 15:34:42;;;;;;;16.00;13.47;;;;;;;;;;5111052;28;20063;-57
2020/12/08 15:37:29;;;;;;;21.77;14.93;;;;;;;;;;5096398;28;20019;-57
2020/12/08 15:40:04;;;;;;;19.23;15.67;;;;;;;;;;5096015;28;20055;-56
2020/12/08 15:45:28;;;;;;;22.27;16.33;;;;;;;;;;5084329;28;20031;-56
2020/12/08 15:48:02;;;;;;;18.90;14.40;;;;;;;;;;5078283;28;20027;-54
2020/12/08 15:50:47;;;;;;;25.17;16.43;;;;;;;;;;5094318;28;20081;-57
2020/12/08 15:53:19;;;;;;;19.10;15.03;;;;;;;;;;5095916;28;20464;-55
2020/12/08 15:58:55;;;;;;;19.93;15.00;;;;;;;;;;5051872;28;20394;-58
2020/12/08 16:01:41;;;;;;;;;;;;;;;;;;;;;
2020/12/08 16:07:14;;;;;;;17.37;14.40;;;;;;;;;;5083675;28;20081;-58
2020/12/08 16:09:58;;;;;;;19.35;14.93;;;;;;;;;;5096925;28;20032;-57
2020/12/08 16:12:49;;;;;;;24.10;15.83;;;;;;;;;;5095912;28;20032;-58
2020/12/08 16:15:35;;;;;;;18.48;13.43;;;;;;;;;;5097634;28;20020;-56
2020/12/08 16:18:22;;;;;;;20.77;14.60;;;;;;;;;;5096426;28;20020;-57
2020/12/08 16:23:59;;;;;;;30.30;13.93;;;;;;;;;;5089490;28;20030;-58
2020/12/08 16:29:27;;;;;;;19.87;13.07;;;;;;;;;;5097586;28;20085;-58
2020/12/08 16:32:28;;;;;;;21.07;15.83;;;;;;;;;;5096133;28;20047;-57
2020/12/08 16:38:07;;;;;;;19.40;14.37;;;;;;;;;;4995424;28;20041;-58
2020/12/08 16:41:04;;;;;;;;;;;;;;;;;;;;;
2020/12/08 16:43:40;;;;;;;18.53;14.13;;;;;;;;;;4991038;28;20476;-58
2020/12/08 16:46:18;;;;;;;20.77;14.60;;;;;;;;;;4992922;28;20039;-58
2020/12/08 16:52:00;;;;;;;20.17;14.77;;;;;;;;;;4995216;28;20511;-58
2020/12/08 16:54:58;;;;;;;20.10;15.17;;;;;;;;;;4995354;28;20422;-55
2020/12/08 17:00:33;;;;;;;20.77;15.70;;;;;;;;;;5008878;28;20045;-54
2020/12/08 17:03:10;;;;;;;20.60;16.30;;;;;;;;;;5034119;28;20033;-57
2020/12/08 17:06:27;;;;;;;24.20;17.23;;;;;;;;;;5033932;28;20056;-58
2020/12/08 17:09:18;;;;;;;20.57;15.20;;;;;;;;;;5047443;28;20117;-58
2020/12/08 17:11:55;;;;;;;;;;;;;;;;;;;;;
2020/12/08 17:14:31;;;;;;;19.87;13.40;;;;;;;;;;5095744;28;19904;-57
2020/12/08 17:17:16;;;;;;;;;;;;;;;;;;;;;
2020/12/08 17:23:22;;;;;;;21.47;16.37;;;;;;;;;;4994783;28;20070;-58
2020/12/08 17:26:30;;;;;;;18.43;14.97;;;;;;;;;;4993954;28;20030;-56
2020/12/08 17:35:18;;;;;;;23.70;15.87;;;;;;;;;;5094761;28;20032;-57
2020/12/08 17:40:55;;;;;;;26.03;16.83;;;;;;;;;;5095465;28;20358;-55
2020/12/08 17:46:37;;;;;;;24.57;16.23;;;;;;;;;;5066220;28;20035;-58
2020/12/08 17:49:02;;;;;;;21.83;17.17;;;;;;;;;;5094886;28;20028;-58
2020/12/08 17:51:54;;;;;;;25.47;18.23;;;;;;;;;;5095330;28;20020;-58
2020/12/08 17:54:28;;;;;;;23.30;17.63;;;;;;;;;;5089341;28;20097;-57
2020/12/08 17:57:23;;;;;;;26.83;19.80;;;;;;;;;;5094855;28;20059;-58
2020/12/08 18:00:13;;;;;;;23.90;17.23;;;;;;;;;;5100956;28;20055;-58
2020/12/08 18:02:50;;;;;;;22.27;18.07;;;;;;;;;;5115708;28;20031;-58
2020/12/08 18:08:37;;;;;;;23.20;17.07;;;;;;;;;;5098139;28;20434;-58
2020/12/08 18:11:32;;;;;;;25.10;18.80;;;;;;;;;;5115410;28;20031;-58
2020/12/08 18:14:11;;;;;;;27.77;18.87;;;;;;;;;;5115401;28;20035;-56
2020/12/08 18:16:53;;;;;;;;;;;;;;;;;;;;;
2020/12/08 18:22:28;;;;;;;;;;;;;;;;;;5097709;28;20059;-58
2020/12/08 18:25:06;;;;;;;24.60;17.10;;;;;;;;;;5063213;28;19998;-56
2020/12/08 18:27:54;;;;;;;25.77;19.70;;;;;;;;;;5114624;28;20028;-58
2020/12/08 18:30:30;;;;;;;23.67;17.10;;;;;;;;;;5115094;28;20473;-58
2020/12/08 18:33:33;;;;;;;24.27;18.63;;;;;;;;;;5115412;28;20480;-58
2020/12/08 18:36:05;;;;;;;26.13;18.13;;;;;;;;;;5114765;28;20051;-58
2020/12/08 18:48:09;;;;;;;29.97;20.13;;;;;;;;;;5019450;28;20033;-58
2020/12/08 18:51:05;;;;;;;22.27;18.40;;;;;;;;;;5113770;28;20027;-58
2020/12/08 18:53:36;;;;;;;22.37;17.83;;;;;;;;;;5092229;28;20031;-57
2020/12/08 19:08:59;;;;;;;26.77;19.07;;;;;;;;;;4915680;28;20043;-57
2020/12/08 19:12:02;;;;;;;31.67;22.10;;;;;;;;;;5037988;28;20125;-56
2020/12/08 19:14:57;;;;;;;23.33;16.60;;;;;;;;;;5015187;28;20040;-55
2020/12/08 19:17:38;;;;;;;20.90;18.00;;;;;;;;;;5031920;28;20045;-57
2020/12/08 19:20:20;;;;;;;;;;;;;;;;;;;;;
2020/12/08 19:26:29;;;;;;;31.40;19.47;;;;;;;;;;5032277;28;20475;-58
2020/12/08 19:32:47;;;;;;;22.73;18.53;;;;;;;;;;4915345;29;20090;-55
2020/12/08 19:35:25;;;;;;;26.10;17.73;;;;;;;;;;5026971;28;20483;-57
2020/12/08 19:41:06;;;;;;;23.10;17.67;;;;;;;;;;5028034;28;20044;-57
2020/12/08 19:43:59;;;;;;;26.53;20.13;;;;;;;;;;5118896;28;20094;-56
2020/12/08 19:46:45;;;;;;;28.77;18.93;;;;;;;;;;5117648;28;20114;-57
2020/12/08 19:49:36;;;;;;;;;;;;;;;;;;;;;
2020/12/08 19:52:36;;;;;;;22.73;18.03;;;;;;;;;;5102979;28;20357;-54
2020/12/08 19:55:26;;;;;;;28.43;18.20;;;;;;;;;;5117856;28;20464;-54
2020/12/08 20:01:26;;;;;;;25.93;18.73;;;;;;;;;;5115016;27;20047;-57
2020/12/08 20:04:13;;;;;;;27.13;19.43;;;;;;;;;;5118073;28;20104;-56
2020/12/08 20:09:50;;;;;;;28.03;21.23;;;;;;;;;;5088206;28;20065;-57
2020/12/08 20:15:38;;;;;;;27.33;18.67;;;;;;;;;;5118747;28;20040;-57
2020/12/08 20:18:06;;;;;;;29.07;20.87;;;;;;;;;;5117350;28;20027;-57
2020/12/08 20:21:11;;;;;;;31.13;21.50;;;;;;;;;;5117707;28;20059;-54
2020/12/08 20:26:51;;;;;;;28.90;19.77;;;;;;;;;;5117505;28;20035;-57
2020/12/08 20:29:32;;;;;;;31.27;19.77;;;;;;;;;;5117011;28;20056;-57
2020/12/08 20:32:01;;;;;;;;;;;;;;;;;;5115944;28;20406;-54
2020/12/08 20:35:00;;;;;;;;;;;;;;;;;;;;;
2020/12/08 20:37:53;;;;;;;25.03;16.60;;;;;;;;;;5048052;28;20429;-56
2020/12/08 20:40:50;;;;;;;25.60;19.30;;;;;;;;;;5117574;28;20028;-56
2020/12/08 20:43:40;;;;;;;35.10;21.67;;;;;;;;;;5117392;28;20042;-57
2020/12/08 20:46:15;;;;;;;29.30;22.05;;;;;;;;;;5104631;28;20365;-56
2020/12/08 20:48:47;;;;;;;30.83;21.47;;;;;;;;;;5099737;28;20028;-56
2020/12/08 20:51:19;;;;;;;30.77;22.97;;;;;;;;;;5099499;28;20024;-56
2020/12/08 20:54:01;;;;;;;28.10;21.43;;;;;;;;;;5116913;28;20028;-56
2020/12/08 20:56:42;;;;;;;26.87;20.47;;;;;;;;;;5117553;28;20016;-57
2020/12/08 21:02:09;;;;;;;25.07;18.87;;;;;;;;;;5094011;28;20184;-57
2020/12/08 21:04:56;;;;;;;;;;;;;;;;;;;;;
2020/12/08 21:10:46;;;;;;;33.47;21.23;;;;;;;;;;5060825;28;20032;-57
2020/12/08 21:13:27;;;;;;;28.88;19.67;;;;;;;;;;5117484;28;20046;-57
2020/12/08 21:19:06;;;;;;;23.87;20.30;;;;;;;;;;5108193;28;20032;-56
2020/12/08 21:21:41;;;;;;;28.23;21.77;;;;;;;;;;5099260;28;20023;-57
2020/12/08 21:24:24;;;;;;;34.53;22.67;;;;;;;;;;5117294;28;20019;-56
2020/12/08 21:27:08;;;;;;;39.33;23.63;;;;;;;;;;5080851;28;20184;-55
2020/12/08 21:30:04;;;;;;;;;;;;;;;;;;;;;
2020/12/08 21:32:42;;;;;;;25.50;20.87;;;;;;;;;;5113854;28;20483;-56